createdAt,value
2023-03-22T00:04:46.363Z,49.92
2023-03-22T00:09:48.490Z,40.35
2023-03-22T00:14:50.610Z,36.17
2023-03-22T00:19:54.734Z,44.72
2023-03-22T00:24:56.844Z,50.55
2023-03-22T00:29:58.994Z,36.60
2023-03-22T00:35:02.124Z,41.42
2023-03-22T00:40:06.209Z,52.65
2023-03-22T00:45:09.645Z,54.50
2023-03-22T00:50:12.010Z,44.13
2023-03-22T00:55:14.667Z,46.05
2023-03-22T01:00:17.082Z,42.35
2023-03-22T01:05:22.205Z,44.33
2023-03-22T01:10:24.630Z,45.75
2023-03-22T01:15:26.850Z,52.78
2023-03-22T01:20:29.245Z,44.78
2023-03-22T01:25:31.507Z,53.70
2023-03-22T01:30:33.806Z,47.45
2023-03-22T01:35:36.685Z,48.38
2023-03-22T01:40:41.084Z,48.58
2023-03-22T01:45:44.077Z,59.85
2023-03-22T01:50:50.057Z,50.15
2023-03-22T01:55:53.539Z,49.47
2023-03-22T02:01:01.518Z,51.08
2023-03-22T02:06:38.579Z,56.78
2023-03-22T02:11:54.755Z,48.42
2023-03-22T02:17:15.037Z,45.78
2023-03-22T02:22:30.616Z,63.05
2023-03-22T02:27:38.759Z,55.80
2023-03-22T02:32:52.799Z,48.28
2023-03-22T02:38:18.054Z,41.80
2023-03-22T02:43:38.937Z,44.22
2023-03-22T02:48:53.715Z,35.83
2023-03-22T02:53:59.026Z,38.75
2023-03-22T02:59:03.387Z,48.55
2023-03-22T03:04:07.644Z,49.15
2023-03-22T03:09:10.127Z,50.42
2023-03-22T03:14:26.304Z,44.80
2023-03-22T03:19:33.500Z,43.15
2023-03-22T03:24:38.709Z,41.70
2023-03-22T03:29:43.156Z,36.30
2023-03-22T03:34:57.482Z,37.75
2023-03-22T03:40:11.255Z,36.05
2023-03-22T03:45:15.779Z,39.22
2023-03-22T03:50:17.946Z,33.35
2023-03-22T03:55:20.954Z,31.63
2023-03-22T04:00:23.256Z,50.15
2023-03-22T04:05:54.406Z,45.58
2023-03-22T04:10:57.957Z,42.85
2023-03-22T04:16:02.492Z,47.25
2023-03-22T04:21:09.030Z,34.45
2023-03-22T04:26:22.311Z,40.90
2023-03-22T04:31:43.069Z,40.60
2023-03-22T04:37:06.081Z,45.35
2023-03-22T04:42:11.903Z,34.45
2023-03-22T04:47:15.075Z,34.58
2023-03-22T04:52:18.268Z,46.83
2023-03-22T04:57:27.637Z,43.95
2023-03-22T05:02:29.864Z,38.45
2023-03-22T05:07:32.185Z,37.78
2023-03-22T05:12:36.748Z,30.20
2023-03-22T05:17:51.720Z,41.30
2023-03-22T05:22:57.216Z,33.15
2023-03-22T05:28:03.689Z,41.33
2023-03-22T05:33:32.223Z,39.13
2023-03-22T05:38:34.512Z,31.83
2023-03-22T05:43:39.426Z,40.58
2023-03-22T05:48:41.968Z,39.53
2023-03-22T05:53:45.807Z,33.03
2023-03-22T05:58:52.358Z,36.40
2023-03-22T06:03:56.944Z,38.22
2023-03-22T06:09:17.259Z,41.20
2023-03-22T06:14:24.413Z,42.85
2023-03-22T06:19:46.784Z,51.70
2023-03-22T06:24:50.441Z,39.25
2023-03-22T06:30:00.712Z,43.67
2023-03-22T06:35:03.431Z,40.17
2023-03-22T06:40:05.977Z,43.00
2023-03-22T06:45:09.413Z,40.38
2023-03-22T06:50:15.026Z,61.30
2023-03-22T06:55:46.533Z,38.72
2023-03-22T07:00:58.308Z,49.97
2023-03-22T07:06:03.070Z,61.13
2023-03-22T07:11:07.389Z,53.30
2023-03-22T07:16:10.039Z,62.13
2023-03-22T07:21:23.359Z,53.70
2023-03-22T07:26:31.085Z,55.97
2023-03-22T07:31:38.270Z,51.28
2023-03-22T07:36:45.088Z,47.85
2023-03-22T07:41:48.219Z,58.35
2023-03-22T07:47:10.715Z,53.17
2023-03-22T07:52:19.043Z,42.55
2023-03-22T07:57:21.211Z,47.83
2023-03-22T08:02:29.756Z,53.28
2023-03-22T08:07:34.484Z,46.40
2023-03-22T08:12:36.735Z,42.08
2023-03-22T08:17:49.995Z,38.30
2023-03-22T08:23:01.299Z,44.92
2023-03-22T08:28:21.860Z,42.47
2023-03-22T08:33:25.674Z,42.08
2023-03-22T08:38:28.308Z,38.65
2023-03-22T08:43:31.340Z,45.75
2023-03-22T08:48:34.141Z,41.78
2023-03-22T08:53:59.175Z,42.72
2023-03-22T08:59:31.094Z,42.47
2023-03-22T09:04:59.626Z,40.45
2023-03-22T09:10:02.044Z,39.42
2023-03-22T09:15:07.044Z,42.65
2023-03-22T09:20:13.033Z,36.03
2023-03-22T09:25:17.918Z,45.45
2023-03-22T09:30:23.499Z,37.45
2023-03-22T09:35:26.306Z,52.33
2023-03-22T09:40:33.185Z,37.28
2023-03-22T09:45:41.984Z,47.05
2023-03-22T09:50:47.068Z,41.63
2023-03-22T09:55:52.044Z,44.75
2023-03-22T10:00:54.430Z,37.35
2023-03-22T10:06:05.585Z,38.00
2023-03-22T10:11:19.607Z,42.65
2023-03-22T10:16:29.859Z,36.38
2023-03-22T10:21:32.977Z,32.72
2023-03-22T10:26:38.911Z,33.47
2023-03-22T10:36:43.958Z,32.45
2023-03-22T10:41:46.888Z,30.48
2023-03-22T10:46:49.924Z,30.05
2023-03-22T10:51:54.893Z,30.80
2023-03-22T10:56:56.989Z,32.33
2023-03-22T11:02:01.958Z,30.20
2023-03-22T11:07:04.258Z,26.63
2023-03-22T11:12:12.542Z,31.50
2023-03-22T11:17:21.258Z,28.90
2023-03-22T11:22:26.058Z,18.15
2023-03-22T11:27:29.506Z,23.08
2023-03-22T11:32:41.031Z,23.00
2023-03-22T11:37:44.577Z,24.65
2023-03-22T11:42:47.494Z,20.30
2023-03-22T11:47:49.904Z,23.25
2023-03-22T11:52:52.820Z,21.60
2023-03-22T11:57:58.528Z,19.23
2023-03-22T12:03:00.760Z,19.10
2023-03-22T12:08:21.923Z,24.05
2023-03-22T12:13:29.034Z,25.10
2023-03-22T12:18:34.713Z,20.80
2023-03-22T12:23:37.200Z,22.73
2023-03-22T12:28:53.618Z,16.95
2023-03-22T12:33:57.042Z,24.60
2023-03-22T12:39:00.066Z,25.10
2023-03-22T12:44:14.941Z,21.35
2023-03-22T12:49:17.059Z,22.25
2023-03-22T12:54:20.599Z,23.50
2023-03-22T12:59:28.112Z,20.80
2023-03-22T13:04:32.846Z,17.85
2023-03-22T13:09:37.303Z,23.45
2023-03-22T13:14:56.426Z,20.77
2023-03-22T13:20:08.185Z,17.83
2023-03-22T13:25:11.208Z,26.33
2023-03-22T13:30:20.825Z,11.10
2023-03-22T13:35:41.730Z,17.17
2023-03-22T13:40:47.481Z,19.73
2023-03-22T13:46:04.117Z,15.05
2023-03-22T13:51:11.703Z,17.17
2023-03-22T13:56:14.619Z,12.50
2023-03-22T14:01:16.795Z,15.98
2023-03-22T14:06:28.319Z,16.00
2023-03-22T14:11:36.848Z,18.92
2023-03-22T14:16:43.788Z,29.17
2023-03-22T14:21:48.879Z,23.48
